Latest Weather Observations for Grafton Airport

IDN60801

Issued at 3:03 pm EST Sunday 28 August 2016 (issued every 30 minutes, with the page automatically refreshed every 10 minutes)

About weather observations | Map of weather stations | Latest weather observations for NSW | Other Formats
Station Details ID: 058161 Name: GRAFTON AIRPORT AWS Lat: -29.76 Lon: 153.03 Height: 25.09 m
Data from the previous 72 hours. | See also: Recent months at Grafton Airport
Date/Time
EST
Temp
°C
App
Temp
°C
Dew
Point
°C
Rel
Hum
%
Delta-T
°C
Wind Press
QNH
hPa
Press
MSL
hPa
Rain since
9am
mm
Dir  Spd
km/h
Gust
km/h
Spd
kts
Gust
kts
28/03:00pm 22.4 19.7 2.5 27 9.4 NNW 6 11 3 6 1020.4 1020.4 0.0
28/02:30pm 22.3 19.9 4.4 31 8.7 N 6 13 3 7 1020.5 1020.5 0.0
28/02:00pm 21.6 18.6 4.2 32 8.4 N 9 17 5 9 1020.6 1020.6 0.0
28/01:30pm 21.9 18.7 4.9 33 8.4 N 11 20 6 11 1021.0 1021.0 0.0
28/01:00pm 21.0 17.9 3.7 32 8.3 NW 9 15 5 8 1021.4 1021.4 0.0
28/12:30pm 21.0 17.5 1.3 27 9.0 NW 9 17 5 9 1021.8 1021.8 0.0
28/12:00pm 20.5 17.9 4.1 34 7.9 WNW 7 15 4 8 1022.3 1022.3 0.0
28/11:30am 20.2 18.1 6.5 41 6.9 N 7 11 4 6 1023.0 1023.0 0.0
28/11:00am 19.9 18.1 7.3 44 6.4 NNW 6 15 3 8 1023.2 1023.2 0.0
28/10:30am 18.3 16.2 6.5 46 5.9 SSW 7 11 4 6 1023.6 1023.6 0.0
28/10:00am 17.3 15.6 7.6 53 4.9 WNW 6 9 3 5 1023.9 1023.9 0.0
28/09:30am 15.7 14.1 8.0 60 3.9 W 6 9 3 5 1024.2 1024.2 0.0
28/09:00am 14.4 13.4 8.8 69 2.8 ENE 4 7 2 4 1024.4 1024.4 0.0
28/08:30am 12.4 12.1 8.7 78 1.8 CALM 0 6 0 3 1024.7 1024.7 0.0
28/08:00am 10.3 9.7 7.4 82 1.4 CALM 0 0 0 0 1024.6 1024.6 0.0
28/07:30am 8.1 7.5 7.5 96 0.3 CALM 0 0 0 0 1024.4 1024.4 0.0
28/07:00am 6.3 5.4 5.9 97 0.2 CALM 0 0 0 0 1024.3 1024.3 0.0
28/06:30am 4.6 3.3 3.9 95 0.3 CALM 0 0 0 0 1023.9 1023.9 0.0
28/06:00am 5.5 3.0 4.9 96 0.3 S 7 9 4 5 1023.2 1023.2 0.0
28/05:30am 5.4 3.5 5.0 97 0.2 S 4 9 2 5 1022.9 1022.9 0.0
28/05:26am 5.1 3.5 4.5 96 0.3 S 2 7 1 4 1022.9 1022.9 0.0
28/05:07am 4.6 3.2 3.7 94 0.4 CALM 0 0 0 0 1022.7 1022.7 0.0
28/05:00am 5.0 3.7 4.1 94 0.4 CALM 0 0 0 0 1022.7 1022.7 0.0
28/04:30am 5.4 3.0 4.4 93 0.4 SSW 6 9 3 5 1022.5 1022.5 0.0
28/04:00am 6.5 4.3 5.5 93 0.4 S 6 9 3 5 1022.3 1022.3 0.0
28/03:30am 6.9 4.6 5.7 92 0.5 SSW 7 9 4 5 1022.0 1022.0 0.0
28/03:00am 6.9 5.6 5.8 93 0.5 SSW 2 7 1 4 1022.0 1022.0 0.0
28/02:30am 6.5 4.4 5.6 94 0.4 SW 6 7 3 4 1021.9 1021.9 0.0
28/02:00am 7.1 5.0 6.0 93 0.5 SSW 6 7 3 4 1022.2 1022.2 0.0
28/01:30am 7.3 6.0 6.1 92 0.5 SW 2 6 1 3 1022.3 1022.3 0.0
28/01:00am 7.7 6.8 6.0 89 0.8 CALM 0 0 0 0 1022.2 1022.2 0.0
28/12:30am 8.4 6.3 6.7 89 0.8 SSW 7 9 4 5 1022.2 1022.2 0.0
28/12:00am 8.1 5.9 6.4 89 0.8 SSW 7 9 4 5 1022.4 1022.4 0.0
 
Date/Time
EST
Temp
°C
App
Temp
°C
Dew
Point
°C
Rel
Hum
%
Delta-T
°C
Wind Press
QNH
hPa
Press
MSL
hPa
Rain since
9am
mm
Dir  Spd
km/h
Gust
km/h
Spd
kts
Gust
kts
27/11:30pm 8.2 6.1 6.8 91 0.6 SSW 7 11 4 6 1022.4 1022.4 0.0
27/11:00pm 8.1 6.0 6.6 90 0.7 SW 7 7 4 4 1022.3 1022.3 0.0
27/10:30pm 9.4 8.0 7.2 86 1.0 S 4 7 2 4 1022.2 1022.2 0.0
27/10:00pm 10.0 8.6 7.3 83 1.3 S 4 6 2 3 1022.2 1022.2 0.0
27/09:30pm 10.6 8.6 7.1 79 1.7 S 7 7 4 4 1022.1 1022.1 0.0
27/09:00pm 10.1 8.3 7.3 83 1.3 SW 6 7 3 4 1022.2 1022.2 0.0
27/08:30pm 11.0 9.2 7.1 77 1.9 S 6 9 3 5 1021.9 1021.9 0.0
27/08:00pm 12.2 10.0 7.7 74 2.2 SSW 9 11 5 6 1021.7 1021.7 0.0
27/07:30pm 11.9 9.7 7.8 76 2.0 S 9 11 5 6 1021.5 1021.5 0.0
27/07:00pm 12.5 10.3 8.0 74 2.2 S 9 11 5 6 1021.2 1021.2 0.0
27/06:30pm 13.4 11.6 8.0 70 2.7 S 7 7 4 4 1020.9 1020.9 0.0
27/06:00pm 14.3 12.4 7.6 64 3.3 S 7 9 4 5 1020.4 1020.4 0.0
27/05:30pm 14.8 12.8 7.1 60 3.8 SSE 7 9 4 5 1020.0 1020.0 0.0
27/05:00pm 16.1 13.3 7.1 55 4.4 S 11 15 6 8 1019.7 1019.7 0.0
27/04:30pm 18.0 14.2 5.9 45 5.9 SSE 15 22 8 12 1019.4 1019.4 0.0
27/04:00pm 18.4 13.7 5.9 44 6.1 S 20 28 11 15 1019.3 1019.3 0.0
27/03:30pm 19.3 14.8 7.1 45 6.2 S 20 28 11 15 1019.1 1019.1 0.0
27/03:00pm 19.4 14.8 6.5 43 6.4 S 20 32 11 17 1018.9 1018.9 0.0
27/02:30pm 18.9 14.5 6.7 45 6.1 SSW 19 30 10 16 1018.7 1018.7 0.0
27/02:00pm 18.1 13.2 5.0 42 6.3 SSW 20 39 11 21 1019.0 1019.0 0.0
27/01:30pm 19.7 14.9 7.4 45 6.3 S 22 30 12 16 1019.1 1019.1 0.0
27/01:00pm 19.6 14.7 7.0 44 6.4 S 22 37 12 20 1019.3 1019.3 0.0
27/12:30pm 17.8 12.5 6.7 48 5.5 S 24 37 13 20 1019.6 1019.6 0.0
27/12:00pm 18.7 14.3 7.2 47 5.8 SSW 20 33 11 18 1019.9 1019.9 0.0
27/11:30am 18.1 12.9 7.2 49 5.5 SSW 24 39 13 21 1020.1 1020.1 0.0
27/11:00am 17.0 11.6 6.2 49 5.3 SSW 24 35 13 19 1020.3 1020.3 0.0
27/10:30am 17.6 12.1 7.4 51 5.1 S 26 35 14 19 1020.1 1020.1 0.0
27/10:00am 16.9 13.5 7.8 55 4.6 SSW 15 22 8 12 1020.1 1020.1 0.0
27/09:30am 15.1 11.9 6.7 57 4.1 SSW 13 26 7 14 1020.2 1020.2 0.0
27/09:00am 13.4 11.5 6.5 63 3.3 WSW 6 11 3 6 1020.8 1020.8 0.0
27/08:30am 11.1 9.0 5.8 70 2.5 SW 6 9 3 5 1020.6 1020.6 0.0
27/08:00am 8.9 7.8 4.9 76 1.8 CALM 0 6 0 3 1020.5 1020.5 0.0
27/07:30am 7.2 6.2 5.8 91 0.6 CALM 0 0 0 0 1020.1 1020.1 0.0
27/07:00am 5.0 2.6 4.1 94 0.4 S 6 9 3 5 1020.0 1020.0 0.0
27/06:30am 3.8 2.2 2.6 92 0.5 CALM 0 0 0 0 1019.6 1019.6 0.0
27/06:00am 4.3 1.5 3.0 91 0.5 S 7 9 4 5 1019.6 1019.6 0.0
27/05:30am 5.1 2.5 3.0 86 0.9 S 6 9 3 5 1019.5 1019.5 0.0
27/05:00am 4.9 2.1 3.2 89 0.7 SSW 7 9 4 5 1019.1 1019.1 0.0
27/04:30am 5.2 2.1 3.7 90 0.6 S 9 11 5 6 1019.0 1019.0 0.0
27/04:00am 4.6 1.1 3.7 94 0.4 S 11 13 6 7 1018.7 1018.7 0.0
27/03:30am 4.1 1.0 3.4 95 0.3 SSW 9 11 5 6 1018.6 1018.6 0.0
27/03:00am 4.1 1.4 3.5 96 0.2 SSW 7 11 4 6 1018.8 1018.8 0.0
27/02:30am 4.1 1.5 3.2 94 0.4 SW 6 11 3 6 1018.9 1018.9 0.0
27/02:00am 4.3 2.9 3.3 93 0.4 CALM 0 0 0 0 1019.0 1019.0 0.0
27/01:30am 5.1 3.4 3.8 91 0.5 SE 2 6 1 3 1019.1 1019.1 0.0
27/01:00am 5.3 3.9 3.3 87 0.8 CALM 0 0 0 0 1018.7 1018.7 0.0
27/12:30am 6.0 3.4 4.2 88 0.8 SSW 7 9 4 5 1018.6 1018.6 0.0
27/12:00am 6.9 3.9 4.0 82 1.2 S 9 9 5 5 1018.7 1018.7 0.0
 
Date/Time
EST
Temp
°C
App
Temp
°C
Dew
Point
°C
Rel
Hum
%
Delta-T
°C
Wind Press
QNH
hPa
Press
MSL
hPa
Rain since
9am
mm
Dir  Spd
km/h
Gust
km/h
Spd
kts
Gust
kts
26/11:30pm 7.9 5.3 4.1 77 1.6 S 7 9 4 5 1018.5 1018.5 0.0
26/11:00pm 8.2 5.3 4.4 77 1.7 SSW 9 11 5 6 1018.4 1018.4 0.0
26/10:30pm 7.7 5.2 3.9 77 1.6 SSW 6 7 3 4 1018.4 1018.4 0.0
26/10:00pm 8.4 5.9 4.0 74 1.9 SSW 6 7 3 4 1018.5 1018.5 0.0
26/09:30pm 8.6 5.2 4.2 74 1.9 S 11 13 6 7 1018.4 1018.4 0.0
26/09:00pm 8.5 5.2 4.3 75 1.8 SSW 11 13 6 7 1018.5 1018.5 0.0
26/08:30pm 8.6 6.0 4.4 75 1.8 SSW 7 9 4 5 1018.6 1018.6 0.0
26/08:00pm 10.0 7.5 3.5 64 2.8 SW 6 7 3 4 1018.5 1018.5 0.0
26/07:30pm 11.3 8.2 3.6 59 3.4 SSW 9 13 5 7 1018.2 1018.2 0.0
26/07:00pm 11.7 8.6 3.5 57 3.6 SSW 9 13 5 7 1018.0 1018.0 0.0
26/06:30pm 12.1 8.7 3.9 57 3.7 S 11 15 6 8 1017.5 1017.5 0.0
26/06:00pm 12.9 9.1 3.8 54 4.1 SSE 13 15 7 8 1017.1 1017.1 0.0
26/05:30pm 13.8 10.0 3.9 51 4.5 SSE 13 19 7 10 1016.7 1016.7 0.0
26/05:00pm 14.9 11.2 4.3 49 4.9 SE 13 20 7 11 1016.3 1016.3 0.0
26/04:30pm 15.7 10.9 4.4 47 5.3 SE 19 28 10 15 1016.0 1016.0 0.0
26/04:00pm 16.2 11.1 4.3 45 5.6 SE 20 28 11 15 1015.6 1015.6 0.0
26/03:30pm 16.9 12.2 5.2 46 5.6 SE 19 28 10 15 1015.3 1015.3 0.0
26/03:00pm 18.4 14.1 5.3 42 6.4 E 17 24 9 13 1014.8 1014.8 0.0
26/02:30pm 18.7 14.7 0.8 30 8.0 N 11 15 6 8 1014.8 1014.8 0.0
26/02:00pm 18.6 14.9 0.2 29 8.1 NNE 9 20 5 11 1014.9 1014.9 0.0
26/01:30pm 18.5 15.3 0.6 30 7.9 NW 7 15 4 8 1015.3 1015.3 0.0
26/01:00pm 18.5 16.0 3.6 37 7.0 S 6 9 3 5 1015.4 1015.4 0.0
26/12:30pm 17.7 14.8 2.5 36 6.9 SE 7 11 4 6 1015.7 1015.7 0.0
26/12:00pm 17.6 14.6 0.7 32 7.4 NW 6 15 3 8 1016.1 1016.1 0.0
26/11:30am 17.3 14.3 0.9 33 7.2 SE 6 9 3 5 1016.7 1016.7 0.0
26/11:00am 16.8 14.0 3.1 40 6.3 SW 7 13 4 7 1017.2 1017.2 0.0
26/10:30am 16.2 13.9 4.6 46 5.5 SSE 6 15 3 8 1017.5 1017.5 0.0
26/10:00am 14.8 12.0 3.0 45 5.3 W 7 17 4 9 1017.7 1017.7 0.0
26/09:30am 14.1 11.1 4.1 51 4.6 SW 9 13 5 7 1018.0 1018.0 0.0
26/09:00am 12.9 9.9 4.3 56 3.9 WSW 9 13 5 7 1018.2 1018.2 0.0
26/08:30am 11.3 8.6 5.8 69 2.6 SSW 9 15 5 8 1018.3 1018.3 0.0
26/08:00am 8.7 7.7 5.6 81 1.4 CALM 0 6 0 3 1018.2 1018.2 0.0
26/07:30am 6.7 5.7 5.8 94 0.4 CALM 0 4 0 2 1017.9 1017.9 0.0
26/07:00am 4.9 2.6 4.6 98 0.1 SSW 6 9 3 5 1017.8 1017.8 0.0
26/06:30am 3.5 2.0 2.9 96 0.2 CALM 0 0 0 0 1017.5 1017.5 0.0
26/06:00am 3.7 1.1 3.1 96 0.2 S 6 7 3 4 1017.0 1017.0 0.0
26/05:30am 3.6 2.1 3.0 96 0.2 CALM 0 6 0 3 1016.6 1016.6 0.0
26/05:00am 4.0 1.4 3.4 96 0.2 SW 6 9 3 5 1016.4 1016.4 0.0
26/04:30am 4.2 2.8 3.3 94 0.4 CALM 0 0 0 0 1016.3 1016.3 0.0
26/04:00am 4.7 2.9 3.7 93 0.4 S 2 6 1 3 1015.9 1015.9 0.0
26/03:30am 5.6 3.1 4.7 94 0.4 SSE 7 9 4 5 1015.5 1015.5 0.0
26/03:00am 4.6 2.1 3.9 95 0.3 SSW 6 9 3 5 1015.2 1015.2 0.0
26/02:30am 4.7 3.3 3.8 94 0.4 CALM 0 0 0 0 1015.1 1015.1 0.0
26/02:00am 5.2 3.9 4.3 94 0.4 CALM 0 0 0 0 1015.2 1015.2 0.0
26/01:30am 5.4 3.7 4.1 91 0.6 SSE 2 6 1 3 1015.1 1015.1 0.0
26/01:00am 5.8 3.5 4.6 92 0.5 S 6 9 3 5 1015.2 1015.2 0.0
26/12:30am 6.3 5.1 4.8 90 0.7 CALM 0 0 0 0 1015.2 1015.2 0.0
26/12:00am 6.7 5.5 4.7 87 0.9 CALM 0 0 0 0 1014.9 1014.9 0.0
 
Date/Time
EST
Temp
°C
App
Temp
°C
Dew
Point
°C
Rel
Hum
%
Delta-T
°C
Wind Press
QNH
hPa
Press
MSL
hPa
Rain since
9am
mm
Dir  Spd
km/h
Gust
km/h
Spd
kts
Gust
kts
25/11:30pm 7.4 6.3 5.0 85 1.1 CALM 0 0 0 0 1015.1 1015.1 0.0
25/11:00pm 7.9 5.2 5.4 84 1.1 S 9 9 5 5 1015.1 1015.1 0.0
25/10:30pm 8.2 7.1 5.0 80 1.4 CALM 0 0 0 0 1015.4 1015.4 0.0
25/10:00pm 9.4 8.3 5.2 75 1.9 CALM 0 7 0 4 1015.3 1015.3 0.0
25/09:30pm 10.0 8.1 4.8 70 2.3 S 4 7 2 4 1015.2 1015.2 0.0
25/09:00pm 11.4 8.7 3.7 59 3.4 SW 7 9 4 5 1014.7 1014.7 0.0
25/08:30pm 11.6 9.1 3.6 58 3.5 SW 6 9 3 5 1014.3 1014.3 0.0
25/08:00pm 12.8 10.0 2.9 51 4.4 SSW 7 9 4 5 1014.1 1014.1 0.0
25/07:30pm 13.8 11.1 2.7 47 4.9 SW 6 7 3 4 1013.8 1013.8 0.0
25/07:00pm 14.4 11.1 2.6 45 5.2 WSW 9 13 5 7 1013.3 1013.3 0.0
25/06:30pm 14.8 11.6 3.0 45 5.3 SW 9 15 5 8 1013.0 1013.0 0.0
25/06:00pm 15.8 11.8 2.9 42 5.8 SW 13 20 7 11 1012.6 1012.6 0.0
25/05:30pm 16.8 11.7 3.1 40 6.3 SW 19 28 10 15 1011.8 1011.8 0.0
25/05:00pm 18.0 13.6 2.7 36 7.0 WSW 15 26 8 14 1011.2 1011.2 0.0
25/04:30pm 19.5 15.5 2.8 33 7.8 WSW 13 20 7 11 1010.4 1010.4 0.0
25/04:00pm 20.1 15.9 3.8 34 7.8 WSW 15 24 8 13 1009.9 1009.9 0.0
25/03:30pm 20.4 16.2 3.6 33 8.0 WSW 15 22 8 12 1009.4 1009.4 0.0

Other Formats:

Comma delimited format used in spreadsheet applications
http://www.bom.gov.au/fwo/IDN60801/IDN60801.95570.axf

JavaScript Object Notation format (JSON) in row-major order
http://www.bom.gov.au/fwo/IDN60801/IDN60801.95570.json